Time;durP1;ratioP1;P1;durP2;ratioP2;P2;SDS_P1;SDS_P2;PMS_P1;PMS_P2;Temp;Humidity;BMP_temperature;BMP_pressure;BME280_temperature;BME280_humidity;BME280_pressure;Samples;Min_cycle;Max_cycle;Signal;HPM_P1;HPM_P2
2023/07/25 00:00:25;;;;;;;1.35;0.63;;;;;;;20.84;60.11;100639.84;4998878;28;20084;-52
2023/07/25 00:02:50;;;;;;;1.77;0.88;;;;;;;20.85;60.04;100643.41;4997869;28;20072;-52
2023/07/25 00:05:15;;;;;;;1.15;0.60;;;;;;;20.85;59.94;100646.13;5002014;28;20760;-52
2023/07/25 00:07:41;;;;;;;1.02;0.77;;;;;;;20.84;60.17;100650.66;5000358;28;20035;-51
2023/07/25 00:10:07;;;;;;;0.80;0.65;;;;;;;20.83;59.87;100645.44;5001470;28;20037;-52
2023/07/25 00:12:34;;;;;;;0.60;0.60;;;;;;;20.82;59.94;100651.88;5001572;28;20534;-52
2023/07/25 00:15:00;;;;;;;1.15;0.60;;;;;;;20.81;60.18;100648.31;5001715;28;20095;-52
2023/07/25 00:17:25;;;;;;;0.68;0.68;;;;;;;20.83;60.24;100645.44;5000086;28;20092;-52
2023/07/25 00:19:50;;;;;;;1.42;0.80;;;;;;;20.82;59.30;100643.75;4998551;28;20141;-52
2023/07/25 00:22:16;;;;;;;0.90;0.68;;;;;;;20.81;59.47;100644.75;5002256;28;20441;-52
2023/07/25 00:24:41;;;;;;;2.63;0.82;;;;;;;20.81;59.60;100642.03;4998759;28;20365;-52
2023/07/25 00:27:06;;;;;;;1.25;0.70;;;;;;;20.81;60.22;100647.44;5002256;28;20053;-52
2023/07/25 00:29:32;;;;;;;1.13;0.70;;;;;;;20.80;59.44;100648.47;4995035;28;20030;-52
2023/07/25 00:31:57;;;;;;;1.13;0.80;;;;;;;20.79;59.71;100644.06;5002995;28;20034;-52
2023/07/25 00:34:22;;;;;;;1.05;0.70;;;;;;;20.79;59.43;100636.81;4996705;28;20037;-52
2023/07/25 00:36:50;;;;;;;2.05;0.90;;;;;;;20.78;59.50;100640.53;4999300;28;20066;-52
2023/07/25 00:39:15;;;;;;;0.70;0.70;;;;;;;20.78;59.48;100631.56;4995907;28;20125;-52
2023/07/25 00:41:40;;;;;;;0.98;0.80;;;;;;;20.78;59.20;100635.13;4995939;28;20659;-51
2023/07/25 00:44:06;;;;;;;0.85;0.77;;;;;;;20.77;59.07;100640.69;5002614;28;20042;-51
2023/07/25 00:46:31;;;;;;;1.58;0.93;;;;;;;20.76;59.08;100642.56;4997426;28;20121;-52
2023/07/25 00:48:56;;;;;;;1.00;0.75;;;;;;;20.76;58.95;100641.72;5002459;28;20113;-52
2023/07/25 00:51:22;;;;;;;2.30;0.52;;;;;;;20.76;59.40;100642.56;4998992;28;20476;-52
2023/07/25 00:53:48;;;;;;;1.00;0.80;;;;;;;20.75;58.76;100638.16;5001821;28;20069;-52
2023/07/25 00:56:14;;;;;;;1.08;0.85;;;;;;;20.74;59.17;100638.34;4998970;28;20031;-52
2023/07/25 00:58:39;;;;;;;0.68;0.68;;;;;;;20.75;59.09;100640.84;4998545;28;20049;-52
2023/07/25 01:01:06;;;;;;;1.52;1.00;;;;;;;20.74;58.84;100638.34;4999893;28;20038;-52
2023/07/25 01:03:37;;;;;;;0.73;0.63;;;;;;;20.75;59.34;100640.03;4998623;28;20045;-52
2023/07/25 01:06:05;;;;;;;0.70;0.70;;;;;;;20.75;58.54;100637.31;4998859;28;20215;-52
2023/07/25 01:08:31;;;;;;;0.60;0.60;;;;;;;20.72;58.92;100635.81;4999278;28;20365;-52
2023/07/25 01:10:56;;;;;;;1.33;0.80;;;;;;;20.73;58.86;100639.34;5001230;28;20064;-52
2023/07/25 01:13:22;;;;;;;0.70;0.70;;;;;;;20.72;58.62;100633.09;4999407;28;20045;-51
2023/07/25 01:15:50;;;;;;;1.25;0.88;;;;;;;20.71;58.52;100631.38;5004150;28;20027;-52
2023/07/25 01:18:15;;;;;;;0.93;0.77;;;;;;;20.70;58.54;100630.56;4998163;28;20045;-51
2023/07/25 01:20:42;;;;;;;1.27;0.68;;;;;;;20.70;58.88;100633.25;4997988;28;20034;-52
2023/07/25 01:23:10;;;;;;;1.20;0.70;;;;;;;20.70;58.46;100632.44;5000663;28;20116;-50
2023/07/25 01:25:36;;;;;;;1.25;0.80;;;;;;;20.70;58.38;100633.25;4996144;28;20038;-51
2023/07/25 01:28:01;;;;;;;0.80;0.80;;;;;;;20.69;58.48;100630.72;5000465;28;20065;-52
2023/07/25 01:30:26;;;;;;;1.15;0.70;;;;;;;20.69;58.44;100631.59;4998756;28;20034;-50
2023/07/25 01:32:53;;;;;;;4.35;0.80;;;;;;;20.68;58.62;100629.03;4998597;28;20102;-52
2023/07/25 01:35:19;;;;;;;1.50;1.00;;;;;;;20.69;58.59;100631.59;5000536;28;20034;-52
2023/07/25 01:37:44;;;;;;;1.42;0.90;;;;;;;20.68;58.49;100621.78;4998422;28;20524;-52
2023/07/25 01:40:10;;;;;;;0.73;0.65;;;;;;;20.68;58.19;100618.22;5000404;28;20034;-52
2023/07/25 01:42:36;;;;;;;0.70;0.70;;;;;;;20.68;58.04;100618.22;4998638;28;20037;-52
2023/07/25 01:45:01;;;;;;;2.13;0.80;;;;;;;20.67;58.41;100617.34;4999822;28;20038;-52
2023/07/25 01:47:27;;;;;;;0.90;0.80;;;;;;;20.67;57.85;100611.94;4998118;28;20037;-52
2023/07/25 01:49:53;;;;;;;1.70;0.82;;;;;;;20.65;58.46;100622.09;5000590;28;20030;-52
2023/07/25 01:52:19;;;;;;;0.80;0.80;;;;;;;20.66;58.15;100606.72;4999702;28;20350;-51
2023/07/25 01:54:44;;;;;;;0.75;0.60;;;;;;;20.66;58.32;100609.44;4998265;28;20037;-52
2023/07/25 01:57:10;;;;;;;0.77;0.70;;;;;;;20.65;57.84;100608.56;4998825;28;20038;-52
2023/07/25 01:59:35;;;;;;;2.33;0.88;;;;;;;20.65;58.36;100613.97;4998469;28;20030;-52
2023/07/25 02:02:01;;;;;;;1.25;0.73;;;;;;;20.64;58.38;100606.06;4998655;28;20053;-51
2023/07/25 02:04:26;;;;;;;1.63;1.00;;;;;;;20.64;57.79;100603.34;4998007;28;20027;-49
2023/07/25 02:06:51;;;;;;;1.15;0.80;;;;;;;20.64;57.84;100603.34;4999616;28;20038;-52
2023/07/25 02:09:17;;;;;;;1.30;1.00;;;;;;;20.64;58.08;100604.19;4999214;28;20118;-52
2023/07/25 02:11:42;;;;;;;0.90;0.90;;;;;;;20.63;57.94;100599.78;5001305;28;20492;-52
2023/07/25 02:14:07;;;;;;;1.67;0.70;;;;;;;20.63;57.71;100594.38;4998689;28;20080;-52
2023/07/25 02:16:36;;;;;;;2.13;0.80;;;;;;;20.64;58.17;100600.66;5001511;28;20079;-52
2023/07/25 02:19:03;;;;;;;1.98;0.80;;;;;;;20.61;57.68;100596.41;4995122;28;20092;-52
2023/07/25 02:21:28;;;;;;;0.70;0.70;;;;;;;20.60;57.68;100594.72;4998590;28;20129;-52
2023/07/25 02:23:54;;;;;;;1.77;1.00;;;;;;;20.60;57.65;100600.13;4997624;28;20113;-50
2023/07/25 02:26:19;;;;;;;1.65;0.77;;;;;;;20.59;57.63;100603.81;4997788;28;20037;-49
2023/07/25 02:28:45;;;;;;;0.88;0.82;;;;;;;20.58;57.88;100596.72;4998789;28;20113;-49
2023/07/25 02:31:10;;;;;;;0.70;0.70;;;;;;;20.60;57.74;100593.84;4997383;28;20511;-49
2023/07/25 02:33:35;;;;;;;0.80;0.80;;;;;;;20.58;57.43;100599.44;4997619;28;20862;-50
2023/07/25 02:36:01;;;;;;;0.80;0.77;;;;;;;20.59;57.31;100589.44;4997534;28;20088;-50
2023/07/25 02:38:26;;;;;;;1.50;0.73;;;;;;;20.58;57.39;100601.28;4998668;28;20489;-48
2023/07/25 02:40:52;;;;;;;0.60;0.60;;;;;;;20.58;56.86;100596.72;4997001;28;20034;-50
2023/07/25 02:43:17;;;;;;;0.85;0.80;;;;;;;20.57;57.52;100586.91;4995656;28;20046;-50
2023/07/25 02:45:43;;;;;;;0.77;0.77;;;;;;;20.57;57.41;100589.63;4999487;28;20538;-51
2023/07/25 02:48:08;;;;;;;0.85;0.85;;;;;;;20.56;57.07;100593.34;4997546;28;20066;-51
2023/07/25 02:50:34;;;;;;;1.23;0.95;;;;;;;20.56;57.11;100597.88;4999885;28;20396;-52
2023/07/25 02:52:59;;;;;;;0.65;0.65;;;;;;;20.57;56.95;100600.44;4997871;28;20070;-52
2023/07/25 02:55:25;;;;;;;1.08;0.95;;;;;;;20.56;57.12;100598.75;4997388;28;20416;-52
2023/07/25 02:57:50;;;;;;;0.50;0.50;;;;;;;20.55;57.16;100597.06;4997481;28;20034;-50
2023/07/25 03:00:16;;;;;;;0.88;0.68;;;;;;;20.54;57.46;100598.06;4997345;28;20030;-50
2023/07/25 03:02:41;;;;;;;0.90;0.60;;;;;;;20.54;57.08;100594.50;4999490;28;20076;-51
2023/07/25 03:05:08;;;;;;;1.05;0.80;;;;;;;20.52;56.79;100600.09;4996818;28;20042;-51
2023/07/25 03:07:34;;;;;;;0.60;0.60;;;;;;;20.52;56.90;100591.97;4998673;28;20049;-51
2023/07/25 03:09:59;;;;;;;2.35;0.90;;;;;;;20.53;57.04;100598.25;4996627;28;20046;-50
2023/07/25 03:12:24;;;;;;;0.98;0.63;;;;;;;20.53;56.71;100601.78;4999536;28;20652;-50
2023/07/25 03:14:50;;;;;;;0.80;0.80;;;;;;;20.53;57.00;100601.78;4997767;28;20423;-52
2023/07/25 03:17:15;;;;;;;1.10;0.77;;;;;;;20.51;56.74;100601.13;4997168;28;20594;-52
2023/07/25 03:19:41;;;;;;;1.45;0.73;;;;;;;20.51;56.83;100606.53;4996436;28;20069;-49
2023/07/25 03:22:06;;;;;;;0.85;0.57;;;;;;;20.50;56.68;100602.13;4997604;28;20038;-52
2023/07/25 03:24:31;;;;;;;0.75;0.70;;;;;;;20.50;56.88;100602.13;4997415;28;20093;-51
2023/07/25 03:26:57;;;;;;;0.95;0.85;;;;;;;20.50;56.85;100600.28;4996669;28;20034;-51
2023/07/25 03:29:22;;;;;;;0.80;0.70;;;;;;;20.48;56.89;100596.03;4998645;28;20527;-51
2023/07/25 03:31:48;;;;;;;0.70;0.70;;;;;;;20.48;56.28;100594.16;4998436;28;20034;-52
2023/07/25 03:34:13;;;;;;;0.80;0.80;;;;;;;20.48;56.77;100585.22;4996957;28;20125;-52
2023/07/25 03:36:38;;;;;;;0.73;0.73;;;;;;;20.47;56.54;100583.53;4999798;28;20038;-52
2023/07/25 03:39:04;;;;;;;0.68;0.63;;;;;;;20.47;56.57;100587.09;5003257;28;20124;-52
2023/07/25 03:41:29;;;;;;;1.55;0.70;;;;;;;20.46;56.49;100585.38;4998993;28;20038;-52
2023/07/25 03:43:54;;;;;;;2.03;0.68;;;;;;;20.45;56.17;100586.41;5003308;28;20092;-52
2023/07/25 03:46:20;;;;;;;0.60;0.60;;;;;;;20.47;56.77;100586.25;4999434;28;20403;-52
2023/07/25 03:48:45;;;;;;;1.80;0.90;;;;;;;20.46;56.46;100581.84;5000488;28;20097;-51
2023/07/25 03:51:10;;;;;;;0.63;0.63;;;;;;;20.45;56.42;100583.69;5004142;28;20021;-51
2023/07/25 03:53:36;;;;;;;0.60;0.60;;;;;;;20.46;55.94;100587.25;4998321;28;20449;-51
2023/07/25 03:56:01;;;;;;;0.77;0.75;;;;;;;20.46;56.23;100584.53;5003794;28;20034;-52
2023/07/25 03:58:26;;;;;;;0.80;0.68;;;;;;;20.44;56.46;100589.28;4998344;28;20038;-56
2023/07/25 04:00:52;;;;;;;0.52;0.52;;;;;;;20.45;56.27;100588.28;5003724;28;20038;-56
2023/07/25 04:03:17;;;;;;;0.60;0.60;;;;;;;20.43;56.16;100585.72;5001200;28;20033;-56
2023/07/25 04:05:43;;;;;;;1.02;0.80;;;;;;;20.43;56.44;100582.19;5005839;28;20041;-56
2023/07/25 04:08:08;;;;;;;0.70;0.65;;;;;;;20.43;56.15;100593.00;5001703;28;20026;-56
2023/07/25 04:10:34;;;;;;;0.80;0.77;;;;;;;20.42;56.13;100585.91;5000003;28;20061;-56
2023/07/25 04:12:59;;;;;;;1.02;0.75;;;;;;;20.42;56.46;100588.59;5001765;28;20045;-56
2023/07/25 04:15:24;;;;;;;1.17;0.70;;;;;;;20.42;56.38;100599.41;5002042;28;20031;-56
2023/07/25 04:17:50;;;;;;;0.73;0.60;;;;;;;20.41;55.98;100592.31;5000863;28;20511;-56
2023/07/25 04:20:15;;;;;;;0.60;0.60;;;;;;;20.41;56.39;100592.31;4998214;28;20034;-56
2023/07/25 04:22:40;;;;;;;0.80;0.70;;;;;;;20.42;56.26;100591.31;4999693;28;20038;-56
2023/07/25 04:25:06;;;;;;;1.45;0.60;;;;;;;20.40;55.89;100590.63;5001604;28;20036;-56
2023/07/25 04:27:31;;;;;;;0.60;0.60;;;;;;;20.40;56.33;100593.34;4999965;28;20090;-56
2023/07/25 04:29:57;;;;;;;1.02;0.80;;;;;;;20.40;56.29;100590.63;5002268;28;20077;-57
2023/07/25 04:32:22;;;;;;;1.08;0.70;;;;;;;20.39;56.16;100594.34;4999172;28;20034;-56
2023/07/25 04:34:48;;;;;;;0.60;0.60;;;;;;;20.40;56.12;100604.16;5000022;28;20042;-56
2023/07/25 04:37:13;;;;;;;0.63;0.60;;;;;;;20.38;56.28;100595.38;4999890;28;20096;-56
2023/07/25 04:39:38;;;;;;;0.80;0.80;;;;;;;20.38;55.75;100593.50;5000137;28;20485;-56
2023/07/25 04:42:04;;;;;;;0.98;0.80;;;;;;;20.37;55.70;100599.06;4997493;28;20038;-56
2023/07/25 04:44:30;;;;;;;0.73;0.63;;;;;;;20.36;56.07;100603.63;5002317;28;20046;-56
2023/07/25 04:46:55;;;;;;;1.80;0.85;;;;;;;20.37;56.13;100604.47;5003671;28;20029;-57
2023/07/25 04:49:20;;;;;;;0.65;0.65;;;;;;;20.37;56.14;100607.19;4995200;28;20436;-56
2023/07/25 04:51:46;;;;;;;0.80;0.80;;;;;;;20.37;56.27;100607.19;4999679;28;20456;-57
2023/07/25 04:54:11;;;;;;;0.98;0.73;;;;;;;20.36;55.69;100603.63;4995707;28;20042;-57
2023/07/25 04:56:38;;;;;;;0.93;0.60;;;;;;;20.37;56.17;100599.06;5000257;28;20077;-56
2023/07/25 04:59:05;;;;;;;0.73;0.73;;;;;;;20.34;56.06;100596.72;4998061;28;20039;-57
2023/07/25 05:01:31;;;;;;;0.93;0.88;;;;;;;20.35;56.06;100593.81;4995654;28;20037;-57
2023/07/25 05:03:56;;;;;;;1.00;0.77;;;;;;;20.35;56.00;100601.09;4996810;28;20443;-57
2023/07/25 05:06:21;;;;;;;1.48;0.90;;;;;;;20.35;55.69;100593.00;4996557;28;20460;-57
2023/07/25 05:08:47;;;;;;;1.65;0.80;;;;;;;20.34;55.94;100594.00;5001548;28;20030;-57
2023/07/25 05:11:12;;;;;;;1.10;0.80;;;;;;;20.34;55.92;100588.59;4999558;28;20121;-57
2023/07/25 05:13:37;;;;;;;1.75;0.90;;;;;;;20.34;56.32;100596.72;5000302;28;20553;-57
2023/07/25 05:16:03;;;;;;;0.60;0.60;;;;;;;20.35;55.67;100604.63;4998092;28;20065;-57
2023/07/25 05:18:28;;;;;;;0.77;0.77;;;;;;;20.35;56.13;100601.09;4998375;28;20392;-57
2023/07/25 05:20:54;;;;;;;1.50;0.60;;;;;;;20.34;55.91;100594.00;5000784;28;20700;-56
2023/07/25 05:23:19;;;;;;;1.25;1.00;;;;;;;20.34;56.20;100602.13;5001161;28;20048;-57
2023/07/25 05:25:48;;;;;;;1.85;0.60;;;;;;;20.34;55.68;100610.25;4999755;28;20112;-52
2023/07/25 05:28:13;;;;;;;0.70;0.70;;;;;;;20.34;55.65;100604.84;4996374;28;20623;-57
2023/07/25 05:30:39;;;;;;;0.82;0.70;;;;;;;20.34;55.59;100605.66;5000948;28;20045;-57
2023/07/25 05:33:05;;;;;;;0.70;0.70;;;;;;;20.33;55.65;100603.13;4998035;28;20559;-57
2023/07/25 05:35:30;;;;;;;0.65;0.57;;;;;;;20.33;55.48;100600.41;5001088;28;20475;-57
2023/07/25 05:37:56;;;;;;;1.00;0.63;;;;;;;20.33;55.52;100605.84;4998352;28;20092;-57
2023/07/25 05:40:21;;;;;;;0.60;0.60;;;;;;;20.33;55.62;100609.38;4999361;28;20045;-57
2023/07/25 05:42:47;;;;;;;0.60;0.60;;;;;;;20.34;55.84;100607.53;4996732;28;20049;-57
2023/07/25 05:45:13;;;;;;;0.70;0.70;;;;;;;20.32;55.75;100613.09;4997848;28;20034;-57
2023/07/25 05:47:38;;;;;;;0.90;0.77;;;;;;;20.31;55.57;100612.28;5002014;28;20037;-57
2023/07/25 05:50:04;;;;;;;0.75;0.70;;;;;;;20.33;55.80;100619.34;4993726;28;20095;-57
2023/07/25 05:52:29;;;;;;;0.50;0.50;;;;;;;20.32;55.71;100623.91;5001119;28;20205;-57
2023/07/25 05:54:55;;;;;;;0.65;0.60;;;;;;;20.31;56.10;100614.97;4997651;28;20483;-57
2023/07/25 05:57:20;;;;;;;0.75;0.75;;;;;;;20.31;56.04;100623.09;4997138;28;20046;-57
2023/07/25 05:59:46;;;;;;;0.82;0.80;;;;;;;20.33;55.57;100622.06;4998451;28;20041;-57
2023/07/25 06:02:11;;;;;;;0.80;0.80;;;;;;;20.32;55.76;100621.22;5001678;28;20044;-57
2023/07/25 06:04:37;;;;;;;0.77;0.77;;;;;;;20.34;55.49;100623.75;4997432;28;20041;-57
2023/07/25 06:07:02;;;;;;;0.77;0.70;;;;;;;20.33;55.75;100624.75;5000309;28;20042;-57
2023/07/25 06:09:28;;;;;;;0.75;0.70;;;;;;;20.34;55.88;100623.75;4999430;28;20038;-57
2023/07/25 06:11:55;;;;;;;0.60;0.60;;;;;;;20.33;55.51;100619.34;4996573;28;20137;-57
2023/07/25 06:14:21;;;;;;;1.38;0.60;;;;;;;20.31;55.57;100617.69;4998181;28;20040;-57
2023/07/25 06:16:46;;;;;;;0.98;0.70;;;;;;;20.31;55.88;100617.69;4999475;28;20037;-57
2023/07/25 06:19:11;;;;;;;0.50;0.50;;;;;;;20.31;56.01;100612.28;5002433;28;20117;-57
2023/07/25 06:21:37;;;;;;;2.05;0.60;;;;;;;20.31;55.58;100611.41;4998606;28;20030;-57
2023/07/25 06:24:02;;;;;;;0.85;0.80;;;;;;;20.31;55.85;100612.28;5001364;28;20044;-57
2023/07/25 06:26:27;;;;;;;0.93;0.70;;;;;;;20.31;55.99;100606.84;4997866;28;20142;-57
2023/07/25 06:28:53;;;;;;;0.88;0.77;;;;;;;20.31;55.46;100617.69;4997958;28;20054;-57
2023/07/25 06:31:18;;;;;;;0.50;0.50;;;;;;;20.31;55.48;100620.38;4999111;28;20096;-57
2023/07/25 06:33:44;;;;;;;0.73;0.73;;;;;;;20.30;55.40;100626.78;5001696;28;20034;-57
2023/07/25 06:36:09;;;;;;;1.65;0.60;;;;;;;20.31;55.52;100630.31;4999760;28;20097;-57
2023/07/25 06:38:34;;;;;;;0.65;0.60;;;;;;;20.31;55.79;100633.03;4998789;28;20041;-57
2023/07/25 06:41:00;;;;;;;0.75;0.70;;;;;;;20.31;55.58;100633.03;5001528;28;20096;-57
2023/07/25 06:43:25;;;;;;;1.50;0.82;;;;;;;20.31;56.03;100635.72;4997945;28;20044;-57
2023/07/25 06:45:51;;;;;;;0.60;0.60;;;;;;;20.29;55.67;100637.75;4999068;28;20033;-57
2023/07/25 06:48:16;;;;;;;1.10;0.70;;;;;;;20.32;55.59;100637.44;4998870;28;20038;-57
2023/07/25 06:50:42;;;;;;;0.60;0.60;;;;;;;20.31;55.63;100633.03;4998654;28;20539;-57
2023/07/25 06:53:07;;;;;;;0.85;0.60;;;;;;;20.31;55.34;100633.03;4998408;28;20699;-57
2023/07/25 06:55:34;;;;;;;0.70;0.70;;;;;;;20.31;55.65;100628.50;4999283;28;20047;-57
2023/07/25 06:58:00;;;;;;;0.65;0.65;;;;;;;20.31;55.95;100623.09;5000449;28;20030;-57
2023/07/25 07:00:25;;;;;;;0.82;0.73;;;;;;;20.31;55.41;100620.38;4997616;28;20034;-57
2023/07/25 07:02:50;;;;;;;0.60;0.60;;;;;;;20.33;55.85;100624.75;4999654;28;20030;-57
2023/07/25 07:05:16;;;;;;;0.98;0.77;;;;;;;20.33;55.78;100630.16;4997718;28;20034;-57
2023/07/25 07:07:41;;;;;;;0.57;0.57;;;;;;;20.35;55.51;100638.94;5001065;28;20037;-57
2023/07/25 07:10:07;;;;;;;0.73;0.60;;;;;;;20.34;55.70;100634.56;4998638;28;20120;-57
2023/07/25 07:12:32;;;;;;;1.85;0.57;;;;;;;20.35;55.62;100636.25;4997656;28;20034;-57
2023/07/25 07:14:57;;;;;;;0.65;0.65;;;;;;;20.34;55.57;100631.88;4999213;28;20033;-57
2023/07/25 07:17:23;;;;;;;0.60;0.60;;;;;;;20.35;55.87;100639.78;4998749;28;20100;-57
2023/07/25 07:19:48;;;;;;;0.52;0.50;;;;;;;20.35;56.01;100641.66;4995199;28;20506;-57
2023/07/25 07:22:13;;;;;;;0.70;0.70;;;;;;;20.36;55.52;100646.06;4997977;28;20049;-57
2023/07/25 07:24:40;;;;;;;1.35;0.70;;;;;;;20.35;55.38;100645.19;5001730;28;20083;-57
2023/07/25 07:27:05;;;;;;;0.90;0.77;;;;;;;20.36;55.86;100640.66;4997480;28;20034;-57
2023/07/25 07:29:31;;;;;;;0.70;0.70;;;;;;;20.36;55.63;100652.31;5000076;28;20500;-57
2023/07/25 07:31:56;;;;;;;0.50;0.50;;;;;;;20.37;55.80;100647.75;4997915;28;20041;-57
2023/07/25 07:34:22;;;;;;;0.70;0.68;;;;;;;20.38;55.54;100650.28;4997719;28;20086;-57
2023/07/25 07:36:47;;;;;;;0.50;0.50;;;;;;;20.38;55.47;100649.44;4999980;28;20112;-57
2023/07/25 07:39:12;;;;;;;0.65;0.50;;;;;;;20.37;55.54;100645.91;4996877;28;20034;-57
2023/07/25 07:41:38;;;;;;;0.60;0.43;;;;;;;20.38;55.62;100644.03;4998276;28;20504;-57
2023/07/25 07:44:03;;;;;;;0.88;0.60;;;;;;;20.37;55.98;100648.59;4997227;28;20124;-57
2023/07/25 07:46:30;;;;;;;0.95;0.50;;;;;;;20.37;55.49;100653.16;4998271;28;20038;-57
2023/07/25 07:48:59;;;;;;;0.50;0.50;;;;;;;20.36;55.50;100657.72;4998699;28;20545;-57
2023/07/25 07:51:25;;;;;;;0.47;0.47;;;;;;;20.37;55.67;100666.66;4997577;28;20035;-57
2023/07/25 07:53:51;;;;;;;1.17;0.63;;;;;;;20.36;55.88;100657.72;4997788;28;20462;-57
2023/07/25 07:56:16;;;;;;;0.85;0.60;;;;;;;20.36;56.08;100662.28;4996212;28;20089;-57
2023/07/25 07:58:42;;;;;;;1.20;0.80;;;;;;;20.36;55.58;100673.94;4994977;28;20026;-57
2023/07/25 08:01:18;;;;;;;0.70;0.65;;;;;;;20.36;55.90;100671.25;4995821;28;20164;-57
2023/07/25 08:03:44;;;;;;;0.75;0.57;;;;;;;20.35;55.67;100682.22;4997289;28;20416;-57
2023/07/25 08:06:10;;;;;;;0.57;0.57;;;;;;;20.35;56.02;100680.34;4995322;28;20064;-57
2023/07/25 08:08:36;;;;;;;0.85;0.57;;;;;;;20.36;55.82;100678.50;4994468;28;20038;-57
2023/07/25 08:11:01;;;;;;;1.13;0.60;;;;;;;20.35;55.58;100680.34;4999795;28;20052;-57
2023/07/25 08:13:26;;;;;;;1.02;0.60;;;;;;;20.35;55.88;100687.63;4997320;28;20395;-57
2023/07/25 08:15:52;;;;;;;0.73;0.52;;;;;;;20.35;55.74;100688.47;4999725;28;20073;-57
2023/07/25 08:18:17;;;;;;;0.40;0.40;;;;;;;20.36;55.76;100692.03;4997573;28;20045;-57
2023/07/25 08:20:44;;;;;;;0.70;0.70;;;;;;;20.36;56.08;100687.47;4996568;28;20066;-57
2023/07/25 08:23:10;;;;;;;0.50;0.50;;;;;;;20.36;55.43;100684.75;5000513;28;20487;-57
2023/07/25 08:25:37;;;;;;;0.57;0.57;;;;;;;20.36;55.50;100689.34;5000960;28;20037;-57
2023/07/25 08:28:03;;;;;;;2.47;0.80;;;;;;;20.36;55.67;100689.34;4997162;28;20066;-57
2023/07/25 08:30:28;;;;;;;1.38;0.63;;;;;;;20.35;55.45;100687.63;5000529;28;20133;-57
2023/07/25 08:32:54;;;;;;;0.70;0.52;;;;;;;20.36;55.70;100690.16;5001025;28;20029;-57
2023/07/25 08:35:20;;;;;;;1.65;0.80;;;;;;;20.36;55.70;100694.75;4999847;28;20038;-57
2023/07/25 08:37:45;;;;;;;0.63;0.60;;;;;;;20.37;55.54;100691.00;4999644;28;20464;-57
2023/07/25 08:40:11;;;;;;;0.90;0.65;;;;;;;20.37;55.74;100693.72;5001654;28;20073;-57
2023/07/25 08:42:38;;;;;;;0.95;0.45;;;;;;;20.37;55.82;100696.41;4999198;28;20044;-57
2023/07/25 08:45:06;;;;;;;0.82;0.50;;;;;;;20.39;55.51;100694.38;4996726;28;20109;-57
2023/07/25 08:47:33;;;;;;;0.95;0.65;;;;;;;20.38;55.56;100704.38;5000153;28;20045;-57
2023/07/25 08:50:05;;;;;;;0.38;0.38;;;;;;;20.38;56.04;100703.53;4998583;28;20209;-57
2023/07/25 08:52:31;;;;;;;0.63;0.57;;;;;;;20.39;55.65;100706.06;4999602;28;20463;-57
2023/07/25 08:54:57;;;;;;;0.85;0.57;;;;;;;20.40;55.77;100717.72;4997437;28;20416;-57
2023/07/25 08:57:23;;;;;;;1.65;0.70;;;;;;;20.39;55.66;100714.19;4999318;28;20036;-57
2023/07/25 08:59:50;;;;;;;0.60;0.55;;;;;;;20.38;55.87;100712.47;5000657;28;20490;-57
2023/07/25 09:02:16;;;;;;;1.00;0.60;;;;;;;20.39;55.73;100707.91;5001532;28;20434;-56
2023/07/25 09:04:44;;;;;;;1.48;0.63;;;;;;;20.39;55.86;100711.47;5000202;28;20040;-57
2023/07/25 09:07:10;;;;;;;0.93;0.50;;;;;;;20.40;56.08;100717.72;4999999;28;20099;-57
2023/07/25 09:09:35;;;;;;;1.02;0.70;;;;;;;20.40;55.87;100721.28;5001290;28;20038;-56
2023/07/25 09:12:00;;;;;;;0.52;0.50;;;;;;;20.40;55.80;100713.16;5001254;28;20042;-57
2023/07/25 09:14:26;;;;;;;0.63;0.63;;;;;;;20.41;55.76;100717.56;5001555;28;20033;-57
2023/07/25 09:16:52;;;;;;;0.98;0.55;;;;;;;20.40;55.89;100715.03;5001388;28;20084;-57
2023/07/25 09:19:18;;;;;;;0.55;0.47;;;;;;;20.41;55.98;100716.69;5001727;28;20549;-57
2023/07/25 09:21:48;;;;;;;1.15;0.50;;;;;;;20.41;55.71;100724.81;5000392;28;20030;-57
2023/07/25 09:24:14;;;;;;;1.55;0.60;;;;;;;20.40;55.91;100718.56;4997130;28;20030;-57
2023/07/25 09:26:41;;;;;;;0.55;0.50;;;;;;;20.41;56.27;100717.56;5001674;28;20033;-57
2023/07/25 09:29:08;;;;;;;0.55;0.55;;;;;;;20.40;55.98;100715.88;5000467;28;20116;-57
2023/07/25 09:31:46;;;;;;;0.70;0.50;;;;;;;20.42;55.84;100718.41;5000147;28;20496;-57
2023/07/25 09:34:22;;;;;;;0.50;0.50;;;;;;;20.43;55.81;100722.81;5002327;28;20104;-57
2023/07/25 09:36:48;;;;;;;0.88;0.60;;;;;;;20.42;55.59;100721.94;4997492;28;20026;-57
2023/07/25 09:39:14;;;;;;;0.55;0.50;;;;;;;20.43;56.08;100723.66;5002594;28;20038;-57
2023/07/25 09:41:39;;;;;;;0.43;0.43;;;;;;;20.41;56.00;100720.28;5002671;28;20038;-57
2023/07/25 09:44:05;;;;;;;1.25;0.60;;;;;;;20.44;55.96;100721.78;4999016;28;20069;-56
2023/07/25 09:46:31;;;;;;;0.75;0.60;;;;;;;20.45;55.77;100723.50;5006938;28;20053;-57
2023/07/25 09:48:57;;;;;;;0.77;0.55;;;;;;;20.45;56.03;100724.34;4999791;28;20030;-57
2023/07/25 09:51:22;;;;;;;1.38;0.60;;;;;;;20.45;55.45;100727.03;4997946;28;20026;-57
2023/07/25 09:53:53;;;;;;;0.50;0.50;;;;;;;20.46;55.82;100728.72;4999179;28;20042;-56
2023/07/25 09:56:24;;;;;;;0.40;0.40;;;;;;;20.46;56.06;100727.88;5000467;28;20117;-57
2023/07/25 09:58:51;;;;;;;0.52;0.52;;;;;;;20.46;56.17;100727.88;4998214;28;20061;-57
2023/07/25 10:01:17;;;;;;;0.50;0.43;;;;;;;20.45;55.96;100726.19;4999140;28;20481;-57
2023/07/25 10:03:43;;;;;;;0.55;0.50;;;;;;;20.45;55.56;100728.91;5000169;28;20029;-57
2023/07/25 10:06:10;;;;;;;1.42;0.47;;;;;;;20.46;56.01;100725.19;4999062;28;20038;-57
2023/07/25 10:08:38;;;;;;;0.85;0.50;;;;;;;20.46;56.08;100733.28;4996920;28;20033;-57
2023/07/25 10:11:04;;;;;;;0.50;0.50;;;;;;;20.47;55.85;100724.19;4998688;28;20054;-57
2023/07/25 10:13:32;;;;;;;1.45;0.52;;;;;;;20.47;56.00;100718.78;5001832;28;20045;-57
2023/07/25 10:16:00;;;;;;;0.40;0.40;;;;;;;20.46;55.63;100723.31;4996899;28;20053;-56
2023/07/25 10:18:27;;;;;;;0.43;0.40;;;;;;;20.47;56.01;100721.47;4999515;28;20022;-57
2023/07/25 10:20:53;;;;;;;0.68;0.50;;;;;;;20.47;56.11;100719.59;4997015;28;20068;-57
2023/07/25 10:23:19;;;;;;;0.40;0.40;;;;;;;20.48;56.05;100723.16;4998819;28;20042;-57
2023/07/25 10:25:45;;;;;;;0.60;0.40;;;;;;;20.48;55.82;100720.44;5000763;28;20037;-57
2023/07/25 10:28:12;;;;;;;0.45;0.32;;;;;;;20.48;55.82;100715.03;4998450;28;20042;-56
2023/07/25 10:30:45;;;;;;;2.10;0.63;;;;;;;20.48;56.04;100718.56;5001118;28;20084;-57
2023/07/25 10:33:13;;;;;;;1.50;0.60;;;;;;;20.49;55.72;100716.75;4999539;28;20416;-57
2023/07/25 10:35:41;;;;;;;0.60;0.60;;;;;;;20.50;55.86;100713.00;4997526;28;20576;-57
2023/07/25 10:38:09;;;;;;;0.68;0.50;;;;;;;20.50;56.22;100713.00;4998325;28;20033;-57
2023/07/25 10:40:55;;;;;;;0.40;0.40;;;;;;;20.51;56.21;100726.38;4999259;28;20045;-57
2023/07/25 10:43:21;;;;;;;1.48;0.85;;;;;;;20.51;55.80;100728.25;4997087;28;20039;-57
2023/07/25 10:45:49;;;;;;;0.47;0.47;;;;;;;20.50;55.74;100727.41;4998030;28;20452;-57
2023/07/25 10:48:35;;;;;;;0.95;0.50;;;;;;;20.53;56.16;100717.25;4995163;28;20030;-57
2023/07/25 10:51:06;;;;;;;0.63;0.40;;;;;;;20.51;55.82;100726.38;4998132;28;20044;-57
2023/07/25 10:53:32;;;;;;;0.40;0.40;;;;;;;20.51;56.22;100729.06;5001272;28;20044;-57
2023/07/25 10:56:04;;;;;;;0.47;0.47;;;;;;;20.51;56.16;100720.97;4997370;28;20045;-57
2023/07/25 10:58:31;;;;;;;0.50;0.50;;;;;;;20.52;56.11;100724.50;4990466;28;20447;-57
2023/07/25 11:00:57;;;;;;;1.15;0.63;;;;;;;20.52;55.58;100719.09;4998037;28;20039;-57
2023/07/25 11:03:27;;;;;;;1.17;0.50;;;;;;;20.52;55.81;100719.09;4995274;28;20504;-57
2023/07/25 11:06:12;;;;;;;0.40;0.40;;;;;;;20.54;56.14;100716.22;4996653;28;20041;-57
2023/07/25 11:08:40;;;;;;;0.52;0.52;;;;;;;20.54;56.27;100717.06;4997877;28;20069;-57
2023/07/25 11:11:08;;;;;;;1.05;0.60;;;;;;;20.53;56.17;100709.97;4997071;28;20030;-57
2023/07/25 11:13:34;;;;;;;0.45;0.45;;;;;;;20.54;56.15;100717.06;5000890;28;20160;-57
2023/07/25 11:16:09;;;;;;;0.50;0.50;;;;;;;20.53;55.78;100723.50;4994708;28;20128;-57
2023/07/25 11:18:37;;;;;;;0.40;0.40;;;;;;;20.54;55.83;100725.19;4987729;28;20030;-57